KOCH

Nacogdoches A L Mangham Jr Regional Airport

Nacogdoches, Texas, USA
METAR KOCH 221841Z AUTO 16016G19KT 10SM BKN031 OVC038 19/14 A2991 RMK AO2
Observed Flight Rules
Jan-22 @ 18:41 UTC (29 minutes ago) Visual Flight Rules
Wind Visibility Clouds
160° at 16 knots
 Gusting to 19 knots
10 miles
  • Broken at 3,100' AGL
  • Overcast at 3,800' AGL
Temperatures Readings
Current 19°C / 66°F
Dewpoint 14°C / 57°F
Humidity 73%
Altimeter 29.91" Hg
Pressure 1012.92 hPa
Elevation 108
METAR KOCH 221841Z AUTO 16016G19KT 10SM BKN031 OVC038 19/14 A2991 RMK AO2
Observed Flight Rules
Jan-22 @ 18:41 UTC
(29 minutes ago)
VFR
Wind Visibility
160° at 16 knots
 Gusting to 19 knots
10 miles
Clouds
  • Broken at 3,100' AGL
  • Overcast at 3,800' AGL
Temperature Dewpoint
19°C / 66°F 14°C / 57°F
Humidity Altimeter Pressure
73% 29.91" Hg 1012.92 hPa